sensor_id;sensor_type;location;lat;lon;timestamp;P1;durP1;ratioP1;P2;durP2;ratioP2
34924;SDS011;21130;51.728;8.748;2023-04-24T00:01:18;0.80;;;0.80;;
34924;SDS011;21130;51.728;8.748;2023-04-24T00:03:45;0.57;;;0.52;;
34924;SDS011;21130;51.728;8.748;2023-04-24T00:06:13;0.77;;;0.60;;
34924;SDS011;21130;51.728;8.748;2023-04-24T00:08:43;0.75;;;0.60;;
34924;SDS011;21130;51.728;8.748;2023-04-24T00:11:09;0.50;;;0.50;;
34924;SDS011;21130;51.728;8.748;2023-04-24T00:13:36;0.68;;;0.60;;
34924;SDS011;21130;51.728;8.748;2023-04-24T00:16:05;0.88;;;0.50;;
34924;SDS011;21130;51.728;8.748;2023-04-24T00:18:31;0.65;;;0.45;;
34924;SDS011;21130;51.728;8.748;2023-04-24T00:21:04;0.98;;;0.60;;
34924;SDS011;21130;51.728;8.748;2023-04-24T00:23:31;0.65;;;0.65;;
34924;SDS011;21130;51.728;8.748;2023-04-24T00:25:58;0.50;;;0.50;;
34924;SDS011;21130;51.728;8.748;2023-04-24T00:28:25;1.95;;;0.70;;
34924;SDS011;21130;51.728;8.748;2023-04-24T00:30:51;0.50;;;0.50;;
34924;SDS011;21130;51.728;8.748;2023-04-24T00:33:17;0.60;;;0.60;;
34924;SDS011;21130;51.728;8.748;2023-04-24T00:35:44;1.08;;;0.60;;
34924;SDS011;21130;51.728;8.748;2023-04-24T00:38:13;1.35;;;0.40;;
34924;SDS011;21130;51.728;8.748;2023-04-24T00:40:39;0.50;;;0.50;;
34924;SDS011;21130;51.728;8.748;2023-04-24T00:43:07;0.57;;;0.50;;
34924;SDS011;21130;51.728;8.748;2023-04-24T00:45:34;0.60;;;0.60;;
34924;SDS011;21130;51.728;8.748;2023-04-24T00:48:01;0.60;;;0.40;;
34924;SDS011;21130;51.728;8.748;2023-04-24T00:50:28;0.60;;;0.60;;
34924;SDS011;21130;51.728;8.748;2023-04-24T00:52:55;0.68;;;0.60;;
34924;SDS011;21130;51.728;8.748;2023-04-24T00:55:22;0.55;;;0.55;;
34924;SDS011;21130;51.728;8.748;2023-04-24T00:57:48;0.40;;;0.40;;
34924;SDS011;21130;51.728;8.748;2023-04-24T01:00:17;0.75;;;0.60;;
34924;SDS011;21130;51.728;8.748;2023-04-24T01:02:59;0.56;;;0.56;;
34924;SDS011;21130;51.728;8.748;2023-04-24T01:05:33;1.75;;;0.55;;
34924;SDS011;21130;51.728;8.748;2023-04-24T01:07:59;0.50;;;0.50;;
34924;SDS011;21130;51.728;8.748;2023-04-24T01:10:27;0.70;;;0.57;;
34924;SDS011;21130;51.728;8.748;2023-04-24T01:12:57;0.43;;;0.43;;
34924;SDS011;21130;51.728;8.748;2023-04-24T01:15:25;1.55;;;0.70;;
34924;SDS011;21130;51.728;8.748;2023-04-24T01:17:52;1.10;;;0.55;;
34924;SDS011;21130;51.728;8.748;2023-04-24T01:20:18;3.90;;;0.60;;
34924;SDS011;21130;51.728;8.748;2023-04-24T01:22:47;0.55;;;0.55;;
34924;SDS011;21130;51.728;8.748;2023-04-24T01:25:13;0.52;;;0.43;;
34924;SDS011;21130;51.728;8.748;2023-04-24T01:27:40;0.50;;;0.50;;
34924;SDS011;21130;51.728;8.748;2023-04-24T01:30:07;0.50;;;0.50;;
34924;SDS011;21130;51.728;8.748;2023-04-24T01:32:34;0.40;;;0.40;;
34924;SDS011;21130;51.728;8.748;2023-04-24T01:35:02;0.40;;;0.40;;
34924;SDS011;21130;51.728;8.748;2023-04-24T01:37:29;1.75;;;0.52;;
34924;SDS011;21130;51.728;8.748;2023-04-24T01:39:58;0.50;;;0.50;;
34924;SDS011;21130;51.728;8.748;2023-04-24T01:42:28;0.88;;;0.50;;
34924;SDS011;21130;51.728;8.748;2023-04-24T01:44:55;2.50;;;0.65;;
34924;SDS011;21130;51.728;8.748;2023-04-24T01:47:26;0.90;;;0.63;;
34924;SDS011;21130;51.728;8.748;2023-04-24T01:49:52;0.40;;;0.40;;
34924;SDS011;21130;51.728;8.748;2023-04-24T01:52:19;0.45;;;0.45;;
34924;SDS011;21130;51.728;8.748;2023-04-24T01:54:45;0.80;;;0.50;;
34924;SDS011;21130;51.728;8.748;2023-04-24T01:57:13;0.52;;;0.45;;
34924;SDS011;21130;51.728;8.748;2023-04-24T01:59:40;0.30;;;0.30;;
34924;SDS011;21130;51.728;8.748;2023-04-24T02:02:08;0.40;;;0.40;;
34924;SDS011;21130;51.728;8.748;2023-04-24T02:04:34;0.40;;;0.40;;
34924;SDS011;21130;51.728;8.748;2023-04-24T02:07:00;0.40;;;0.40;;
34924;SDS011;21130;51.728;8.748;2023-04-24T02:09:27;1.20;;;0.60;;
34924;SDS011;21130;51.728;8.748;2023-04-24T02:11:53;1.55;;;0.40;;
34924;SDS011;21130;51.728;8.748;2023-04-24T02:14:22;1.20;;;0.50;;
34924;SDS011;21130;51.728;8.748;2023-04-24T02:16:49;0.70;;;0.70;;
34924;SDS011;21130;51.728;8.748;2023-04-24T02:19:15;0.60;;;0.60;;
34924;SDS011;21130;51.728;8.748;2023-04-24T02:21:42;0.70;;;0.70;;
34924;SDS011;21130;51.728;8.748;2023-04-24T02:24:08;0.60;;;0.60;;
34924;SDS011;21130;51.728;8.748;2023-04-24T02:26:35;0.50;;;0.50;;
34924;SDS011;21130;51.728;8.748;2023-04-24T02:29:01;1.00;;;0.60;;
34924;SDS011;21130;51.728;8.748;2023-04-24T02:31:29;0.65;;;0.65;;
34924;SDS011;21130;51.728;8.748;2023-04-24T02:33:55;0.73;;;0.63;;
34924;SDS011;21130;51.728;8.748;2023-04-24T02:36:22;1.05;;;0.52;;
34924;SDS011;21130;51.728;8.748;2023-04-24T02:38:48;0.60;;;0.50;;
34924;SDS011;21130;51.728;8.748;2023-04-24T02:41:15;0.50;;;0.50;;
34924;SDS011;21130;51.728;8.748;2023-04-24T02:43:41;0.60;;;0.60;;
34924;SDS011;21130;51.728;8.748;2023-04-24T02:46:08;0.50;;;0.50;;
34924;SDS011;21130;51.728;8.748;2023-04-24T02:48:36;0.40;;;0.40;;
34924;SDS011;21130;51.728;8.748;2023-04-24T02:51:02;2.20;;;0.60;;
34924;SDS011;21130;51.728;8.748;2023-04-24T02:53:29;0.60;;;0.60;;
34924;SDS011;21130;51.728;8.748;2023-04-24T02:55:55;1.45;;;0.60;;
34924;SDS011;21130;51.728;8.748;2023-04-24T02:58:22;0.60;;;0.50;;
34924;SDS011;21130;51.728;8.748;2023-04-24T03:00:49;1.15;;;0.63;;
34924;SDS011;21130;51.728;8.748;2023-04-24T03:03:19;0.60;;;0.60;;
34924;SDS011;21130;51.728;8.748;2023-04-24T03:05:47;0.70;;;0.60;;
34924;SDS011;21130;51.728;8.748;2023-04-24T03:08:13;1.55;;;0.60;;
34924;SDS011;21130;51.728;8.748;2023-04-24T03:10:40;0.85;;;0.60;;
34924;SDS011;21130;51.728;8.748;2023-04-24T03:13:06;0.60;;;0.60;;
34924;SDS011;21130;51.728;8.748;2023-04-24T03:15:33;1.17;;;0.77;;
34924;SDS011;21130;51.728;8.748;2023-04-24T03:17:59;1.73;;;0.60;;
34924;SDS011;21130;51.728;8.748;2023-04-24T03:20:27;0.60;;;0.60;;
34924;SDS011;21130;51.728;8.748;2023-04-24T03:22:55;0.63;;;0.63;;
34924;SDS011;21130;51.728;8.748;2023-04-24T03:25:22;0.93;;;0.82;;
34924;SDS011;21130;51.728;8.748;2023-04-24T03:27:48;0.75;;;0.75;;
34924;SDS011;21130;51.728;8.748;2023-04-24T03:30:14;1.15;;;0.80;;
34924;SDS011;21130;51.728;8.748;2023-04-24T03:32:41;3.40;;;0.82;;
34924;SDS011;21130;51.728;8.748;2023-04-24T03:35:07;0.80;;;0.55;;
34924;SDS011;21130;51.728;8.748;2023-04-24T03:37:34;0.60;;;0.60;;
34924;SDS011;21130;51.728;8.748;2023-04-24T03:40:02;1.02;;;0.80;;
34924;SDS011;21130;51.728;8.748;2023-04-24T03:42:31;0.77;;;0.75;;
34924;SDS011;21130;51.728;8.748;2023-04-24T03:44:57;0.70;;;0.70;;
34924;SDS011;21130;51.728;8.748;2023-04-24T03:47:23;0.80;;;0.70;;
34924;SDS011;21130;51.728;8.748;2023-04-24T03:49:50;1.23;;;0.80;;
34924;SDS011;21130;51.728;8.748;2023-04-24T03:52:17;1.38;;;0.70;;
34924;SDS011;21130;51.728;8.748;2023-04-24T03:54:43;0.85;;;0.85;;
34924;SDS011;21130;51.728;8.748;2023-04-24T03:57:11;1.02;;;0.80;;
34924;SDS011;21130;51.728;8.748;2023-04-24T03:59:37;1.98;;;1.00;;
34924;SDS011;21130;51.728;8.748;2023-04-24T04:02:04;6.05;;;1.30;;
34924;SDS011;21130;51.728;8.748;2023-04-24T04:04:31;2.05;;;0.77;;
34924;SDS011;21130;51.728;8.748;2023-04-24T04:06:58;1.30;;;0.80;;
34924;SDS011;21130;51.728;8.748;2023-04-24T04:09:26;0.80;;;0.80;;
34924;SDS011;21130;51.728;8.748;2023-04-24T04:11:52;1.58;;;0.80;;
34924;SDS011;21130;51.728;8.748;2023-04-24T04:14:20;2.53;;;0.90;;
34924;SDS011;21130;51.728;8.748;2023-04-24T04:16:46;2.05;;;1.10;;
34924;SDS011;21130;51.728;8.748;2023-04-24T04:19:13;2.03;;;0.98;;
34924;SDS011;21130;51.728;8.748;2023-04-24T04:21:39;1.25;;;1.00;;
34924;SDS011;21130;51.728;8.748;2023-04-24T04:24:06;2.08;;;1.52;;
34924;SDS011;21130;51.728;8.748;2023-04-24T04:26:32;2.00;;;1.80;;
34924;SDS011;21130;51.728;8.748;2023-04-24T04:29:00;4.47;;;1.40;;
34924;SDS011;21130;51.728;8.748;2023-04-24T04:31:29;1.60;;;1.50;;
34924;SDS011;21130;51.728;8.748;2023-04-24T04:33:56;2.05;;;1.60;;
34924;SDS011;21130;51.728;8.748;2023-04-24T04:36:22;2.80;;;1.65;;
34924;SDS011;21130;51.728;8.748;2023-04-24T04:38:49;2.17;;;1.98;;
34924;SDS011;21130;51.728;8.748;2023-04-24T04:41:15;2.58;;;1.63;;
34924;SDS011;21130;51.728;8.748;2023-04-24T04:43:43;2.05;;;1.70;;
34924;SDS011;21130;51.728;8.748;2023-04-24T04:46:09;1.70;;;1.60;;
34924;SDS011;21130;51.728;8.748;2023-04-24T04:48:37;2.28;;;1.80;;
34924;SDS011;21130;51.728;8.748;2023-04-24T04:51:04;1.60;;;1.50;;
34924;SDS011;21130;51.728;8.748;2023-04-24T04:53:31;1.48;;;1.40;;
34924;SDS011;21130;51.728;8.748;2023-04-24T04:55:57;2.17;;;1.48;;
34924;SDS011;21130;51.728;8.748;2023-04-24T04:58:24;2.83;;;1.73;;
34924;SDS011;21130;51.728;8.748;2023-04-24T05:00:51;2.15;;;1.80;;
34924;SDS011;21130;51.728;8.748;2023-04-24T05:03:18;2.92;;;1.90;;
34924;SDS011;21130;51.728;8.748;2023-04-24T05:05:46;3.22;;;2.28;;
34924;SDS011;21130;51.728;8.748;2023-04-24T05:08:13;3.08;;;2.67;;
34924;SDS011;21130;51.728;8.748;2023-04-24T05:10:39;2.97;;;2.70;;
34924;SDS011;21130;51.728;8.748;2023-04-24T05:13:06;3.15;;;2.85;;
34924;SDS011;21130;51.728;8.748;2023-04-24T05:15:32;5.65;;;3.83;;
34924;SDS011;21130;51.728;8.748;2023-04-24T05:17:59;5.60;;;4.72;;
34924;SDS011;21130;51.728;8.748;2023-04-24T05:20:26;5.82;;;4.55;;
34924;SDS011;21130;51.728;8.748;2023-04-24T05:22:53;5.88;;;5.07;;
34924;SDS011;21130;51.728;8.748;2023-04-24T05:25:20;5.75;;;5.25;;
34924;SDS011;21130;51.728;8.748;2023-04-24T05:27:46;7.72;;;5.68;;
34924;SDS011;21130;51.728;8.748;2023-04-24T05:30:13;6.20;;;5.60;;
34924;SDS011;21130;51.728;8.748;2023-04-24T05:32:41;7.57;;;6.75;;
34924;SDS011;21130;51.728;8.748;2023-04-24T05:35:08;7.00;;;6.32;;
34924;SDS011;21130;51.728;8.748;2023-04-24T05:37:34;8.88;;;7.07;;
34924;SDS011;21130;51.728;8.748;2023-04-24T05:40:02;7.68;;;6.90;;
34924;SDS011;21130;51.728;8.748;2023-04-24T05:42:30;7.95;;;7.22;;
34924;SDS011;21130;51.728;8.748;2023-04-24T05:44:57;9.05;;;8.05;;
34924;SDS011;21130;51.728;8.748;2023-04-24T05:47:23;8.35;;;7.63;;
34924;SDS011;21130;51.728;8.748;2023-04-24T05:49:51;8.00;;;7.18;;
34924;SDS011;21130;51.728;8.748;2023-04-24T05:52:17;9.18;;;7.20;;
34924;SDS011;21130;51.728;8.748;2023-04-24T05:54:44;8.02;;;7.22;;
34924;SDS011;21130;51.728;8.748;2023-04-24T05:57:12;8.57;;;6.80;;
34924;SDS011;21130;51.728;8.748;2023-04-24T05:59:38;8.10;;;6.50;;
34924;SDS011;21130;51.728;8.748;2023-04-24T06:02:06;7.10;;;6.40;;
34924;SDS011;21130;51.728;8.748;2023-04-24T06:04:33;7.05;;;6.35;;
34924;SDS011;21130;51.728;8.748;2023-04-24T06:07:00;7.38;;;6.68;;
34924;SDS011;21130;51.728;8.748;2023-04-24T06:09:26;6.47;;;5.80;;
34924;SDS011;21130;51.728;8.748;2023-04-24T06:11:53;6.95;;;6.25;;
34924;SDS011;21130;51.728;8.748;2023-04-24T06:14:21;6.95;;;5.78;;
34924;SDS011;21130;51.728;8.748;2023-04-24T06:16:47;8.68;;;6.18;;
34924;SDS011;21130;51.728;8.748;2023-04-24T06:19:13;7.20;;;6.30;;
34924;SDS011;21130;51.728;8.748;2023-04-24T06:21:40;6.22;;;5.72;;
34924;SDS011;21130;51.728;8.748;2023-04-24T06:24:06;6.30;;;5.70;;
34924;SDS011;21130;51.728;8.748;2023-04-24T06:26:33;7.60;;;5.82;;
34924;SDS011;21130;51.728;8.748;2023-04-24T06:28:59;7.07;;;6.30;;
34924;SDS011;21130;51.728;8.748;2023-04-24T06:31:27;7.15;;;6.30;;
34924;SDS011;21130;51.728;8.748;2023-04-24T06:33:54;7.63;;;6.53;;
34924;SDS011;21130;51.728;8.748;2023-04-24T06:36:20;7.18;;;5.65;;
34924;SDS011;21130;51.728;8.748;2023-04-24T06:38:47;6.85;;;6.20;;
34924;SDS011;21130;51.728;8.748;2023-04-24T06:41:13;7.50;;;6.47;;
34924;SDS011;21130;51.728;8.748;2023-04-24T06:43:40;7.22;;;6.28;;
34924;SDS011;21130;51.728;8.748;2023-04-24T06:46:06;10.65;;;6.45;;
34924;SDS011;21130;51.728;8.748;2023-04-24T06:48:39;6.80;;;6.20;;
34924;SDS011;21130;51.728;8.748;2023-04-24T06:51:05;7.68;;;6.28;;
34924;SDS011;21130;51.728;8.748;2023-04-24T06:53:31;9.30;;;6.07;;
34924;SDS011;21130;51.728;8.748;2023-04-24T06:55:58;6.47;;;5.88;;
34924;SDS011;21130;51.728;8.748;2023-04-24T06:58:25;6.85;;;6.15;;
34924;SDS011;21130;51.728;8.748;2023-04-24T07:00:51;6.88;;;6.18;;
34924;SDS011;21130;51.728;8.748;2023-04-24T07:03:17;7.07;;;5.78;;
34924;SDS011;21130;51.728;8.748;2023-04-24T07:05:46;6.10;;;5.55;;
34924;SDS011;21130;51.728;8.748;2023-04-24T07:08:13;7.30;;;5.20;;
34924;SDS011;21130;51.728;8.748;2023-04-24T07:10:52;6.68;;;5.05;;
34924;SDS011;21130;51.728;8.748;2023-04-24T07:13:18;6.07;;;5.50;;
34924;SDS011;21130;51.728;8.748;2023-04-24T07:15:45;5.80;;;5.20;;
34924;SDS011;21130;51.728;8.748;2023-04-24T07:18:13;5.65;;;5.13;;
34924;SDS011;21130;51.728;8.748;2023-04-24T07:20:40;5.30;;;4.80;;
34924;SDS011;21130;51.728;8.748;2023-04-24T07:23:08;5.50;;;4.70;;
34924;SDS011;21130;51.728;8.748;2023-04-24T07:25:34;5.15;;;4.65;;
34924;SDS011;21130;51.728;8.748;2023-04-24T07:28:01;4.93;;;4.53;;
34924;SDS011;21130;51.728;8.748;2023-04-24T07:30:27;5.07;;;4.57;;
34924;SDS011;21130;51.728;8.748;2023-04-24T07:32:54;4.82;;;4.40;;
34924;SDS011;21130;51.728;8.748;2023-04-24T07:35:20;4.85;;;4.38;;
34924;SDS011;21130;51.728;8.748;2023-04-24T07:37:47;5.75;;;4.78;;
34924;SDS011;21130;51.728;8.748;2023-04-24T07:40:15;4.68;;;4.28;;
34924;SDS011;21130;51.728;8.748;2023-04-24T07:42:41;5.20;;;4.10;;
34924;SDS011;21130;51.728;8.748;2023-04-24T07:45:08;4.15;;;3.75;;
34924;SDS011;21130;51.728;8.748;2023-04-24T07:47:35;4.97;;;4.38;;
34924;SDS011;21130;51.728;8.748;2023-04-24T07:50:05;4.68;;;4.28;;
34924;SDS011;21130;51.728;8.748;2023-04-24T07:52:32;4.07;;;3.75;;
34924;SDS011;21130;51.728;8.748;2023-04-24T07:54:58;4.70;;;3.67;;
34924;SDS011;21130;51.728;8.748;2023-04-24T07:57:26;4.78;;;4.38;;
34924;SDS011;21130;51.728;8.748;2023-04-24T07:59:53;5.18;;;3.83;;
34924;SDS011;21130;51.728;8.748;2023-04-24T08:02:19;3.97;;;3.67;;
34924;SDS011;21130;51.728;8.748;2023-04-24T08:04:53;4.25;;;3.88;;
34924;SDS011;21130;51.728;8.748;2023-04-24T08:07:20;4.30;;;3.90;;
34924;SDS011;21130;51.728;8.748;2023-04-24T08:09:46;3.70;;;3.40;;
34924;SDS011;21130;51.728;8.748;2023-04-24T08:12:13;4.35;;;3.25;;
34924;SDS011;21130;51.728;8.748;2023-04-24T08:14:41;3.60;;;3.30;;
34924;SDS011;21130;51.728;8.748;2023-04-24T08:17:07;3.35;;;2.60;;
34924;SDS011;21130;51.728;8.748;2023-04-24T08:19:34;3.42;;;3.13;;
34924;SDS011;21130;51.728;8.748;2023-04-24T08:22:00;4.63;;;2.85;;
34924;SDS011;21130;51.728;8.748;2023-04-24T08:24:27;3.63;;;2.80;;
34924;SDS011;21130;51.728;8.748;2023-04-24T08:26:54;2.97;;;2.60;;
34924;SDS011;21130;51.728;8.748;2023-04-24T08:29:21;3.13;;;2.85;;
34924;SDS011;21130;51.728;8.748;2023-04-24T08:31:49;3.42;;;2.88;;
34924;SDS011;21130;51.728;8.748;2023-04-24T08:34:15;3.40;;;3.10;;
34924;SDS011;21130;51.728;8.748;2023-04-24T08:36:42;2.67;;;2.47;;
34924;SDS011;21130;51.728;8.748;2023-04-24T08:39:09;3.88;;;3.20;;
34924;SDS011;21130;51.728;8.748;2023-04-24T08:41:35;3.90;;;2.90;;
34924;SDS011;21130;51.728;8.748;2023-04-24T08:44:03;2.75;;;2.55;;
34924;SDS011;21130;51.728;8.748;2023-04-24T08:46:30;2.95;;;2.70;;
34924;SDS011;21130;51.728;8.748;2023-04-24T08:48:58;3.30;;;2.80;;
34924;SDS011;21130;51.728;8.748;2023-04-24T08:51:26;5.50;;;3.25;;
34924;SDS011;21130;51.728;8.748;2023-04-24T08:53:54;4.70;;;3.20;;
34924;SDS011;21130;51.728;8.748;2023-04-24T08:56:21;3.75;;;3.03;;
34924;SDS011;21130;51.728;8.748;2023-04-24T08:58:48;3.55;;;2.65;;
34924;SDS011;21130;51.728;8.748;2023-04-24T09:01:16;3.05;;;2.72;;
34924;SDS011;21130;51.728;8.748;2023-04-24T09:03:44;3.10;;;2.15;;
34924;SDS011;21130;51.728;8.748;2023-04-24T09:06:13;2.97;;;2.45;;
34924;SDS011;21130;51.728;8.748;2023-04-24T09:08:40;2.70;;;2.10;;
34924;SDS011;21130;51.728;8.748;2023-04-24T09:11:08;2.47;;;2.28;;
34924;SDS011;21130;51.728;8.748;2023-04-24T09:13:36;3.10;;;2.30;;
34924;SDS011;21130;51.728;8.748;2023-04-24T09:16:02;1.95;;;1.85;;
34924;SDS011;21130;51.728;8.748;2023-04-24T09:18:29;2.53;;;1.63;;
34924;SDS011;21130;51.728;8.748;2023-04-24T09:21:02;2.22;;;1.90;;
34924;SDS011;21130;51.728;8.748;2023-04-24T09:23:32;1.92;;;1.80;;
34924;SDS011;21130;51.728;8.748;2023-04-24T09:25:59;4.13;;;1.75;;
34924;SDS011;21130;51.728;8.748;2023-04-24T09:31:02;1.95;;;1.85;;
34924;SDS011;21130;51.728;8.748;2023-04-24T09:33:30;1.80;;;1.70;;
34924;SDS011;21130;51.728;8.748;2023-04-24T09:35:59;1.60;;;1.50;;
34924;SDS011;21130;51.728;8.748;2023-04-24T09:38:33;1.60;;;1.50;;
34924;SDS011;21130;51.728;8.748;2023-04-24T09:41:01;1.90;;;1.80;;
34924;SDS011;21130;51.728;8.748;2023-04-24T09:43:28;2.13;;;1.30;;
34924;SDS011;21130;51.728;8.748;2023-04-24T09:45:55;3.28;;;1.35;;
34924;SDS011;21130;51.728;8.748;2023-04-24T09:48:29;1.67;;;1.58;;
34924;SDS011;21130;51.728;8.748;2023-04-24T09:50:57;1.70;;;1.60;;
34924;SDS011;21130;51.728;8.748;2023-04-24T09:53:23;1.33;;;1.23;;
34924;SDS011;21130;51.728;8.748;2023-04-24T09:55:52;1.20;;;1.10;;
34924;SDS011;21130;51.728;8.748;2023-04-24T09:58:18;0.93;;;0.82;;
34924;SDS011;21130;51.728;8.748;2023-04-24T10:00:51;1.30;;;0.90;;
34924;SDS011;21130;51.728;8.748;2023-04-24T10:03:20;1.05;;;0.90;;
34924;SDS011;21130;51.728;8.748;2023-04-24T10:05:46;0.90;;;0.90;;
34924;SDS011;21130;51.728;8.748;2023-04-24T10:08:13;0.68;;;0.68;;
34924;SDS011;21130;51.728;8.748;2023-04-24T10:10:41;0.60;;;0.60;;
34924;SDS011;21130;51.728;8.748;2023-04-24T10:13:10;0.70;;;0.70;;
34924;SDS011;21130;51.728;8.748;2023-04-24T10:15:37;0.70;;;0.70;;
34924;SDS011;21130;51.728;8.748;2023-04-24T10:18:05;0.52;;;0.52;;
34924;SDS011;21130;51.728;8.748;2023-04-24T10:20:33;0.70;;;0.68;;
34924;SDS011;21130;51.728;8.748;2023-04-24T10:23:00;0.90;;;0.50;;
34924;SDS011;21130;51.728;8.748;2023-04-24T10:25:27;0.65;;;0.50;;
34924;SDS011;21130;51.728;8.748;2023-04-24T10:27:55;1.23;;;0.50;;
34924;SDS011;21130;51.728;8.748;2023-04-24T10:30:26;0.43;;;0.43;;
34924;SDS011;21130;51.728;8.748;2023-04-24T10:32:54;0.60;;;0.60;;
34924;SDS011;21130;51.728;8.748;2023-04-24T10:35:21;4.95;;;0.50;;
34924;SDS011;21130;51.728;8.748;2023-04-24T10:37:54;1.45;;;0.52;;
34924;SDS011;21130;51.728;8.748;2023-04-24T10:40:25;1.13;;;0.40;;
34924;SDS011;21130;51.728;8.748;2023-04-24T10:42:53;0.38;;;0.38;;
34924;SDS011;21130;51.728;8.748;2023-04-24T10:45:39;0.40;;;0.40;;
34924;SDS011;21130;51.728;8.748;2023-04-24T10:48:26;0.52;;;0.30;;
34924;SDS011;21130;51.728;8.748;2023-04-24T10:50:53;0.55;;;0.55;;
34924;SDS011;21130;51.728;8.748;2023-04-24T10:53:21;0.85;;;0.30;;
34924;SDS011;21130;51.728;8.748;2023-04-24T10:55:49;1.45;;;0.50;;
34924;SDS011;21130;51.728;8.748;2023-04-24T10:58:18;0.85;;;0.40;;
34924;SDS011;21130;51.728;8.748;2023-04-24T11:00:56;0.50;;;0.50;;
34924;SDS011;21130;51.728;8.748;2023-04-24T11:03:24;0.50;;;0.50;;
34924;SDS011;21130;51.728;8.748;2023-04-24T11:05:53;0.70;;;0.70;;
34924;SDS011;21130;51.728;8.748;2023-04-24T11:08:23;0.40;;;0.40;;
34924;SDS011;21130;51.728;8.748;2023-04-24T11:10:54;0.40;;;0.40;;
34924;SDS011;21130;51.728;8.748;2023-04-24T11:13:23;0.40;;;0.40;;
34924;SDS011;21130;51.728;8.748;2023-04-24T11:18:41;0.57;;;0.50;;
34924;SDS011;21130;51.728;8.748;2023-04-24T11:21:11;0.47;;;0.47;;
34924;SDS011;21130;51.728;8.748;2023-04-24T11:23:38;0.50;;;0.50;;
34924;SDS011;21130;51.728;8.748;2023-04-24T11:26:10;0.85;;;0.77;;
34924;SDS011;21130;51.728;8.748;2023-04-24T11:28:43;0.80;;;0.65;;
34924;SDS011;21130;51.728;8.748;2023-04-24T11:34:06;0.88;;;0.88;;
34924;SDS011;21130;51.728;8.748;2023-04-24T11:36:34;1.40;;;1.30;;
34924;SDS011;21130;51.728;8.748;2023-04-24T11:39:01;2.90;;;1.63;;
34924;SDS011;21130;51.728;8.748;2023-04-24T11:41:27;1.90;;;1.80;;
34924;SDS011;21130;51.728;8.748;2023-04-24T11:43:54;2.08;;;1.98;;
34924;SDS011;21130;51.728;8.748;2023-04-24T11:46:21;2.50;;;2.35;;
34924;SDS011;21130;51.728;8.748;2023-04-24T11:48:49;4.72;;;2.30;;
34924;SDS011;21130;51.728;8.748;2023-04-24T11:51:15;2.50;;;2.40;;
34924;SDS011;21130;51.728;8.748;2023-04-24T11:53:42;2.90;;;2.70;;
34924;SDS011;21130;51.728;8.748;2023-04-24T11:56:08;2.85;;;2.75;;
34924;SDS011;21130;51.728;8.748;2023-04-24T11:58:35;3.15;;;2.95;;
34924;SDS011;21130;51.728;8.748;2023-04-24T12:01:01;3.20;;;3.00;;
34924;SDS011;21130;51.728;8.748;2023-04-24T12:03:29;3.30;;;3.10;;
34924;SDS011;21130;51.728;8.748;2023-04-24T12:06:05;2.30;;;2.20;;
34924;SDS011;21130;51.728;8.748;2023-04-24T12:08:33;2.83;;;2.65;;
34924;SDS011;21130;51.728;8.748;2023-04-24T12:11:00;2.97;;;2.72;;
34924;SDS011;21130;51.728;8.748;2023-04-24T12:13:27;2.33;;;2.20;;
34924;SDS011;21130;51.728;8.748;2023-04-24T12:15:54;2.20;;;2.05;;
34924;SDS011;21130;51.728;8.748;2023-04-24T12:18:21;1.63;;;1.52;;
34924;SDS011;21130;51.728;8.748;2023-04-24T12:20:48;2.20;;;2.00;;
34924;SDS011;21130;51.728;8.748;2023-04-24T12:23:16;1.90;;;1.80;;
34924;SDS011;21130;51.728;8.748;2023-04-24T12:25:44;2.50;;;2.30;;
34924;SDS011;21130;51.728;8.748;2023-04-24T12:28:11;2.05;;;1.95;;
34924;SDS011;21130;51.728;8.748;2023-04-24T12:30:39;2.67;;;2.47;;
34924;SDS011;21130;51.728;8.748;2023-04-24T12:33:09;2.60;;;2.40;;
34924;SDS011;21130;51.728;8.748;2023-04-24T12:35:35;2.60;;;2.40;;
34924;SDS011;21130;51.728;8.748;2023-04-24T12:38:05;3.00;;;2.67;;
34924;SDS011;21130;51.728;8.748;2023-04-24T12:40:34;4.82;;;2.80;;
34924;SDS011;21130;51.728;8.748;2023-04-24T12:43:00;3.55;;;3.25;;
34924;SDS011;21130;51.728;8.748;2023-04-24T12:45:27;3.58;;;3.08;;
34924;SDS011;21130;51.728;8.748;2023-04-24T12:47:53;3.95;;;3.65;;
34924;SDS011;21130;51.728;8.748;2023-04-24T12:50:20;4.85;;;3.60;;
34924;SDS011;21130;51.728;8.748;2023-04-24T12:52:47;6.07;;;4.20;;
34924;SDS011;21130;51.728;8.748;2023-04-24T12:55:14;4.38;;;3.78;;
34924;SDS011;21130;51.728;8.748;2023-04-24T12:57:41;4.68;;;4.28;;
34924;SDS011;21130;51.728;8.748;2023-04-24T13:00:08;5.70;;;4.40;;
34924;SDS011;21130;51.728;8.748;2023-04-24T13:02:35;5.05;;;4.55;;
34924;SDS011;21130;51.728;8.748;2023-04-24T13:05:22;5.35;;;4.82;;
34924;SDS011;21130;51.728;8.748;2023-04-24T13:09:22;8.25;;;5.90;;
34924;SDS011;21130;51.728;8.748;2023-04-24T13:11:48;7.85;;;5.45;;
34924;SDS011;21130;51.728;8.748;2023-04-24T13:14:15;8.50;;;6.03;;
34924;SDS011;21130;51.728;8.748;2023-04-24T13:16:41;9.25;;;6.55;;
34924;SDS011;21130;51.728;8.748;2023-04-24T13:19:08;9.82;;;6.88;;
34924;SDS011;21130;51.728;8.748;2023-04-24T13:21:36;7.72;;;6.28;;
34924;SDS011;21130;51.728;8.748;2023-04-24T13:24:03;8.48;;;6.47;;
34924;SDS011;21130;51.728;8.748;2023-04-24T13:26:32;9.55;;;6.53;;
34924;SDS011;21130;51.728;8.748;2023-04-24T13:28:58;8.80;;;5.90;;
34924;SDS011;21130;51.728;8.748;2023-04-24T13:31:25;8.82;;;6.22;;
34924;SDS011;21130;51.728;8.748;2023-04-24T13:33:51;8.93;;;5.97;;
34924;SDS011;21130;51.728;8.748;2023-04-24T13:36:17;11.90;;;7.10;;
34924;SDS011;21130;51.728;8.748;2023-04-24T13:38:44;11.30;;;6.55;;
34924;SDS011;21130;51.728;8.748;2023-04-24T13:41:10;14.10;;;7.30;;
34924;SDS011;21130;51.728;8.748;2023-04-24T13:43:38;14.10;;;7.15;;
34924;SDS011;21130;51.728;8.748;2023-04-24T13:46:06;9.63;;;7.30;;
34924;SDS011;21130;51.728;8.748;2023-04-24T13:48:33;13.27;;;7.50;;
34924;SDS011;21130;51.728;8.748;2023-04-24T13:50:59;9.60;;;7.68;;
34924;SDS011;21130;51.728;8.748;2023-04-24T13:53:26;14.45;;;8.23;;
34924;SDS011;21130;51.728;8.748;2023-04-24T13:55:52;14.88;;;8.20;;
34924;SDS011;21130;51.728;8.748;2023-04-24T13:58:19;12.68;;;8.40;;
34924;SDS011;21130;51.728;8.748;2023-04-24T14:00:47;14.30;;;8.93;;
34924;SDS011;21130;51.728;8.748;2023-04-24T14:03:14;12.68;;;9.13;;
34924;SDS011;21130;51.728;8.748;2023-04-24T14:05:41;15.80;;;9.98;;
34924;SDS011;21130;51.728;8.748;2023-04-24T14:08:08;17.38;;;10.95;;
34924;SDS011;21130;51.728;8.748;2023-04-24T14:10:34;16.52;;;11.20;;
34924;SDS011;21130;51.728;8.748;2023-04-24T14:13:01;16.63;;;12.05;;
34924;SDS011;21130;51.728;8.748;2023-04-24T14:15:27;17.15;;;12.73;;
34924;SDS011;21130;51.728;8.748;2023-04-24T14:17:55;17.40;;;12.63;;
34924;SDS011;21130;51.728;8.748;2023-04-24T14:20:22;17.63;;;13.65;;
34924;SDS011;21130;51.728;8.748;2023-04-24T14:22:49;17.10;;;13.35;;
34924;SDS011;21130;51.728;8.748;2023-04-24T14:25:15;20.17;;;13.60;;
34924;SDS011;21130;51.728;8.748;2023-04-24T14:27:42;15.38;;;13.52;;
34924;SDS011;21130;51.728;8.748;2023-04-24T14:30:08;19.30;;;12.90;;
34924;SDS011;21130;51.728;8.748;2023-04-24T14:32:36;16.77;;;13.18;;
34924;SDS011;21130;51.728;8.748;2023-04-24T14:35:04;19.63;;;13.15;;
34924;SDS011;21130;51.728;8.748;2023-04-24T14:37:31;16.92;;;12.43;;
34924;SDS011;21130;51.728;8.748;2023-04-24T14:39:58;15.45;;;11.93;;
34924;SDS011;21130;51.728;8.748;2023-04-24T14:42:25;15.63;;;10.68;;
34924;SDS011;21130;51.728;8.748;2023-04-24T14:44:51;15.27;;;11.65;;
34924;SDS011;21130;51.728;8.748;2023-04-24T14:47:18;11.60;;;8.90;;
34924;SDS011;21130;51.728;8.748;2023-04-24T14:49:46;11.23;;;8.02;;
34924;SDS011;21130;51.728;8.748;2023-04-24T14:52:14;10.57;;;8.20;;
34924;SDS011;21130;51.728;8.748;2023-04-24T14:54:41;9.68;;;6.97;;
34924;SDS011;21130;51.728;8.748;2023-04-24T14:57:07;9.50;;;5.50;;